x

St Georges - 8nm Nw Of Crescent City, Ca (46027) Wave Buoy

12:50am - Thu 25th May 2017 All times are PDT. -7 hours from GMT.

  • Sig Wave height 11.2ft
  • Swell Direction
  • Peak Period 9s
  • Average Period 7s
  • Wind
    31mph, 38mph gusts
  • Sea Temp 47°f
  • Air Temp 50°f
  • Sea Pressure 1007.7mb
  • St Georges - 8nm Nw Of Crescent City, Ca
  • St Georges - 8nm Nw Of Crescent City, Ca

More Historic Weather Station data

Upgrade to MSW Pro to gain access to the past 30 days of data for over 8000 Wavebouys and Weather Stations around the globe.

Join Pro

Comparision Forecast

View Surf forecast
   
Thu 05/25 12:50am 11ft 9s 7s 31 38 mph 1007.7mb 47f 50f
Wed 05/24 11:50pm 10.5ft 9s 7s 31 38 mph 1007.6mb 47f 50f
10:50pm 12ft 9s 7s 36 40 mph 1007.4mb 47f 51f
9:50pm 12ft 8s 7s 36 45 mph 1006.6mb 47f 51f
8:50pm 13ft 9s 7s 38 47 mph 1005.9mb 47f 51f
7:50pm 13.5ft 9s 7s 40 49 mph 1005.3mb 47f 51f
6:50pm 14ft 9s 7s 40 51 mph 1005.3mb 47f 51f
5:50pm 13ft 9s 7s 43 49 mph 1005.7mb 47f 51f
4:50pm 13.5ft 9s 7s 43 51 mph 1006.3mb 48f 51f
3:50pm 12.5ft 9s 7s 40 49 mph 1007mb 48f 51f
2:50pm 13ft 8s 7s 40 49 mph 1007.7mb 48f 51f
1:50pm 13ft 9s 7s 40 51 mph 1008.4mb 48f 51f
12:50pm 12ft 10s 7s 40 47 mph 1008.8mb 48f 51f
11:50am 12ft 10s 7s 38 47 mph 1009.2mb 48f 51f
10:50am 13ft 8s 7s 36 43 mph 1009.6mb 48f 51f
9:50am 12ft 8s 7s 36 43 mph 1009.9mb 48f 51f
8:50am 11ft 9s 7s 31 38 mph 1010.3mb 48f 50f
7:50am 11ft 8s 7s 31 38 mph 1010.3mb 48f 50f
6:50am 10ft 8s 7s 29 36 mph 1010.7mb 48f 50f
5:50am 11ft 8s 7s 29 36 mph 1010.8mb 48f 50f
4:50am 11.5ft 8s 7s 29 36 mph 1010.7mb 48f 50f
3:50am 11ft 8s 7s 31 38 mph 1011.4mb 49f 51f
2:50am 11ft 8s 7s 27 34 mph 1012.3mb 50f 51f
1:50am 11ft 8s 7s 29 36 mph 1012.4mb 50f 51f
12:50am 10.5ft 8s 7s 27 29 mph 1013mb 49f 52f
Tue 05/23 11:50pm 11ft 8s 7s 25 29 mph 1012.9mb 48f 52f
10:50pm 11ft 9s 7s 27 34 mph 1012.8mb 48f 52f
9:50pm 11ft 8s 7s 29 34 mph 1012.7mb 48f 52f
8:50pm 11ft 9s 7s 29 34 mph 1012.2mb 48f 52f
7:50pm 11.5ft 8s 7s 29 36 mph 1012mb 49f 52f
6:50pm 10ft 8s 7s 29 34 mph 1012.3mb 48f 52f
5:50pm 10ft 8s 7s 27 31 mph 1012.8mb 48f 53f
4:50pm 10.5ft 8s  -  29 36 mph 1013.2mb 48f 52f
3:50pm 10ft 8s 6s 29 34 mph 1013.8mb 48f 52f
2:50pm 9ft 8s 6s 27 31 mph 1014.4mb 49f 52f
1:50pm 7ft 8s 6s 20 25 mph 1014.8mb 49f 52f
12:50pm 7.5ft 8s 7s 16 20 mph 1014.7mb 49f 52f
11:50am 6.5ft 7s 6s 13 16 mph 1014.5mb 50f 52f
10:50am 6ft 7s 6s 11 13 mph 1014.5mb 50f 52f
9:50am 6ft 8s 7s 9 11 mph 1014.4mb 50f 51f
8:50am 6ft 7s 7s 4 7 mph 1014.2mb 50f 51f
7:50am 5ft 7s 6s 11 13 mph 1013.9mb 49f 51f
6:50am 5ft 7s 6s 11 13 mph 1013.6mb 49f 51f
5:50am 4.5ft 7s 6s 11 13 mph 1013.5mb 49f 51f
4:50am 4.5ft 9s 6s 13 16 mph 1013.5mb 49f 51f
3:50am 4.5ft 7s 6s 9 11 mph 1013.6mb 49f 51f
2:50am 4.5ft 7s 6s 9 11 mph 1013.9mb 49f 51f
1:50am 4.5ft 8s 6s 7 7 mph 1014.3mb 50f 51f
12:50am 5ft 7s 6s 7 9 mph 1014.7mb 50f 52f
Mon 05/22 11:50pm 5ft 7s 6s 7 9 mph 1014.5mb 50f 55f
10:50pm 5ft 7s 6s 7 9 mph 1014.4mb 50f 52f
9:50pm 4.5ft 7s 6s 4 7 mph 1014.4mb 50f 51f
8:50pm 4.5ft 7s 6s 4 4 mph 1014mb 51f 52f
7:50pm 4ft 8s 6s 4 7 mph 1014.2mb 51f 53f
6:50pm 3.5ft 10s 6s 7 7 mph 1014.1mb 52f 54f
5:50pm 4ft 7s 6s 4 4 mph 1014.4mb 51f 53f
4:50pm 4.5ft 9s 6s 9 9 mph 1014.3mb 51f 53f
3:50pm 4.5ft 10s 6s 7 7 mph 1014.6mb 52f 53f
2:50pm 4ft 10s 6s 9 11 mph 1014.6mb 53f 53f
1:50pm 4.5ft 10s 6s 4 4 mph 1014.6mb 54f 54f
12:50pm 4.5ft 7s 6s  -  2 mph 1014.7mb 51f 53f
11:50am 4.5ft 7s 6s 4 4 mph 1014.9mb 51f 51f
10:50am 4.5ft 8s 6s 4 4 mph 1014.9mb 51f 51f
9:50am 4.5ft 8s 6s 2 4 mph 1014.9mb 49f 50f
8:50am 5ft 7s 6s 4 7 mph 1014.9mb 49f 49f
7:50am 5ft 7s 6s 4 4 mph 1014.8mb 49f 49f
6:50am 4.5ft 7s 6s 4 7 mph 1014.8mb 48f 49f
5:50am 4.5ft 7s 6s 7 7 mph 1014.6mb 49f 49f
4:50am 4.5ft 7s 6s 4 7 mph 1014.7mb 49f 49f
3:50am 4.5ft 7s 6s 4 4 mph 1014.9mb 49f 50f
2:50am 5ft 7s 6s 4 7 mph 1015.4mb 50f 49f
1:50am 5ft 7s 6s 2 4 mph 1015.4mb 50f 50f
12:50am 5.5ft 7s 6s 2 4 mph 1015.3mb 50f 52f
Sun 05/21 11:50pm 5.5ft 7s 6s 2 2 mph 1015.4mb 50f 52f
10:50pm 5ft 7s 6s  -  2 mph 1015.7mb 49f 52f
9:50pm 5.5ft 7s 6s 7 9 mph 1015.1mb 49f 52f
8:50pm 5.5ft 7s 6s  -  2 mph 1014.5mb 49f 52f
7:50pm 5.5ft 7s 6s 4 7 mph 1013.8mb 49f 52f
6:50pm 5ft 7s 6s 7 9 mph 1014mb 49f 51f
5:50pm 5.5ft 7s 6s 9 11 mph 1014.3mb 49f 52f
4:50pm 5.5ft 7s 6s 2 4 mph 1014.4mb 49f 52f
3:50pm 6ft 7s 6s 9 11 mph 1014.5mb 49f 51f
2:50pm 6ft 7s 6s 13 16 mph 1014.9mb 50f 51f
1:50pm 6ft 6s 6s 9 11 mph 1015.3mb 49f 50f
12:50pm 5ft 6s 6s 13 18 mph 1015.4mb 49f 50f
11:50am 5ft 7s 6s 2 4 mph 1015.9mb 51f 49f
10:50am 5ft 7s 6s  -  2 mph 1016mb 49f 47f
9:50am 5.5ft 7s 6s 2 4 mph 1015.9mb 50f 47f
8:50am 5.5ft 7s 6s  -  2 mph 1016.1mb 50f 48f